createdAt,value
2022-08-17T00:00:08.765Z,546
2022-08-17T00:01:00.753Z,512
2022-08-17T00:01:53.244Z,524
2022-08-17T00:02:44.426Z,523
2022-08-17T00:03:36.352Z,521
2022-08-17T00:04:28.221Z,515
2022-08-17T00:05:20.127Z,499
2022-08-17T00:06:11.996Z,509
2022-08-17T00:07:03.927Z,514
2022-08-17T00:07:55.805Z,524
2022-08-17T00:08:47.720Z,510
2022-08-17T00:09:39.613Z,535
2022-08-17T00:10:32.461Z,523
2022-08-17T00:11:23.397Z,526
2022-08-17T00:12:43.284Z,508
2022-08-17T00:13:07.206Z,511
2022-08-17T00:13:59.234Z,490
2022-08-17T00:14:50.994Z,490
2022-08-17T00:15:42.903Z,497
2022-08-17T00:16:55.631Z,482
2022-08-17T00:17:26.696Z,474
2022-08-17T00:19:06.324Z,490
2022-08-17T00:19:10.500Z,477
2022-08-17T00:20:02.435Z,486
2022-08-17T00:20:54.309Z,520
2022-08-17T00:22:30.908Z,509
2022-08-17T00:22:38.096Z,512
2022-08-17T00:23:29.977Z,518
2022-08-17T00:24:21.805Z,553
2022-08-17T00:25:13.790Z,561
2022-08-17T00:26:05.687Z,562
2022-08-17T00:26:57.581Z,564
2022-08-17T00:27:49.476Z,563
2022-08-17T00:28:41.379Z,540
2022-08-17T00:29:33.290Z,545
2022-08-17T00:30:25.167Z,534
2022-08-17T00:31:17.095Z,519
2022-08-17T00:33:12.069Z,514
2022-08-17T00:33:15.192Z,509
2022-08-17T00:33:52.770Z,509
2022-08-17T00:34:44.669Z,505
2022-08-17T00:35:36.542Z,510
2022-08-17T00:36:28.470Z,524
2022-08-17T00:37:20.345Z,515
2022-08-17T00:38:12.188Z,506
2022-08-17T00:39:04.133Z,512
2022-08-17T00:39:56.164Z,515
2022-08-17T00:40:47.927Z,504
2022-08-17T00:41:42.178Z,523
2022-08-17T00:42:31.718Z,520
2022-08-17T00:43:23.633Z,529
2022-08-17T00:44:15.517Z,519
2022-08-17T00:45:07.406Z,518
2022-08-17T00:45:59.306Z,513
2022-08-17T00:46:51.207Z,530
2022-08-17T00:47:43.101Z,498
2022-08-17T00:48:34.997Z,478
2022-08-17T00:49:26.861Z,485
2022-08-17T00:50:18.771Z,489
2022-08-17T00:51:10.647Z,480
2022-08-17T00:52:02.533Z,494
2022-08-17T00:52:54.432Z,492
2022-08-17T00:53:46.344Z,483
2022-08-17T00:54:40.994Z,491
2022-08-17T00:55:30.128Z,496
2022-08-17T00:56:21.913Z,495
2022-08-17T00:57:13.908Z,498
2022-08-17T00:58:05.799Z,501
2022-08-17T00:58:57.691Z,498
2022-08-17T01:00:02.283Z,480
2022-08-17T01:00:41.538Z,484
2022-08-17T01:01:33.392Z,493
2022-08-17T01:02:25.264Z,479
2022-08-17T01:03:17.145Z,485
2022-08-17T01:04:09.047Z,479
2022-08-17T01:05:00.942Z,475
2022-08-17T01:05:52.828Z,469
2022-08-17T01:06:44.708Z,471
2022-08-17T01:07:37.834Z,468
2022-08-17T01:08:28.498Z,472
2022-08-17T01:09:20.418Z,477
2022-08-17T01:10:58.125Z,464
2022-08-17T01:11:04.190Z,470
2022-08-17T01:11:56.098Z,470
2022-08-17T01:12:48.043Z,468
2022-08-17T01:13:41.101Z,477
2022-08-17T01:14:31.758Z,473
2022-08-17T01:15:23.635Z,474
2022-08-17T01:16:15.549Z,467
2022-08-17T01:17:07.432Z,485
2022-08-17T01:17:59.337Z,462
2022-08-17T01:18:51.207Z,473
2022-08-17T01:19:43.113Z,464
2022-08-17T01:20:48.087Z,480
2022-08-17T01:21:26.901Z,479
2022-08-17T01:22:18.776Z,498
2022-08-17T01:23:10.699Z,508
2022-08-17T01:24:02.500Z,510
2022-08-17T01:24:54.481Z,485
2022-08-17T01:25:46.346Z,486
2022-08-17T01:26:38.266Z,496
2022-08-17T01:27:30.133Z,494
2022-08-17T01:28:52.798Z,497
2022-08-17T01:29:13.912Z,499
2022-08-17T01:30:05.824Z,491
2022-08-17T01:30:59.513Z,501
2022-08-17T01:31:49.602Z,496
2022-08-17T01:32:41.588Z,525
2022-08-17T01:33:33.389Z,556
2022-08-17T01:34:25.282Z,631
2022-08-17T01:35:17.167Z,667
2022-08-17T01:36:09.041Z,634
2022-08-17T01:37:00.937Z,578
2022-08-17T01:37:52.821Z,546
2022-08-17T01:38:44.727Z,513
2022-08-17T01:39:36.652Z,508
2022-08-17T01:40:28.531Z,515
2022-08-17T01:41:20.395Z,526
2022-08-17T01:42:12.211Z,535
2022-08-17T01:43:04.154Z,516
2022-08-17T01:43:56.079Z,521
2022-08-17T01:44:47.947Z,521
2022-08-17T01:45:39.844Z,539
2022-08-17T01:46:31.735Z,584
2022-08-17T01:47:23.651Z,630
2022-08-17T01:48:15.504Z,611
2022-08-17T01:49:07.402Z,562
2022-08-17T01:49:59.307Z,535
2022-08-17T01:50:51.190Z,524
2022-08-17T01:51:43.060Z,514
2022-08-17T01:52:34.965Z,526
2022-08-17T01:53:26.847Z,502
2022-08-17T01:54:18.732Z,507
2022-08-17T01:55:10.677Z,517
2022-08-17T01:56:02.482Z,551
2022-08-17T01:56:54.394Z,539
2022-08-17T01:57:46.299Z,522
2022-08-17T01:58:38.165Z,519
2022-08-17T01:59:30.072Z,521
2022-08-17T02:00:21.933Z,516
2022-08-17T02:01:13.899Z,509
2022-08-17T02:02:05.713Z,517
2022-08-17T02:02:57.649Z,525
2022-08-17T02:03:59.356Z,530
2022-08-17T02:04:41.386Z,520
2022-08-17T02:05:33.281Z,500
2022-08-17T02:06:27.933Z,500
2022-08-17T02:07:17.039Z,501
2022-08-17T02:08:08.945Z,478
2022-08-17T02:09:02.835Z,480
2022-08-17T02:09:52.921Z,489
2022-08-17T02:10:46.835Z,486
2022-08-17T02:11:36.480Z,480
2022-08-17T02:12:37.613Z,476
2022-08-17T02:13:20.261Z,494
2022-08-17T02:14:12.042Z,481
2022-08-17T02:15:04.049Z,499
2022-08-17T02:15:55.911Z,569
2022-08-17T02:16:47.795Z,575
2022-08-17T02:17:39.676Z,646
2022-08-17T02:18:31.597Z,763
2022-08-17T02:19:23.453Z,886
2022-08-17T02:20:15.342Z,880
2022-08-17T02:21:07.239Z,868
2022-08-17T02:21:59.121Z,694
2022-08-17T02:22:51.188Z,684
2022-08-17T02:23:42.911Z,659
2022-08-17T02:25:01.076Z,614
2022-08-17T02:25:26.693Z,625
2022-08-17T02:26:25.564Z,633
2022-08-17T02:27:10.466Z,609
2022-08-17T02:28:02.295Z,602
2022-08-17T02:28:54.228Z,554
2022-08-17T02:29:46.034Z,575
2022-08-17T02:31:01.977Z,505
2022-08-17T02:31:29.880Z,496
2022-08-17T02:32:27.951Z,495
2022-08-17T02:33:13.668Z,508
2022-08-17T02:34:05.564Z,516
2022-08-17T02:34:57.492Z,514
2022-08-17T02:35:49.342Z,499
2022-08-17T02:36:41.212Z,472
2022-08-17T02:37:33.133Z,493
2022-08-17T02:38:24.995Z,494
2022-08-17T02:39:16.923Z,462
2022-08-17T02:40:08.872Z,485
2022-08-17T02:41:00.694Z,488
2022-08-17T02:41:52.475Z,474
2022-08-17T02:42:44.453Z,479
2022-08-17T02:43:36.338Z,465
2022-08-17T02:44:39.418Z,471
2022-08-17T02:45:20.130Z,472
2022-08-17T02:46:12.009Z,480
2022-08-17T02:47:03.884Z,459
2022-08-17T02:47:55.792Z,468
2022-08-17T02:48:47.658Z,459
2022-08-17T02:49:39.565Z,470
2022-08-17T02:50:31.433Z,474
2022-08-17T02:51:23.339Z,500
2022-08-17T02:52:15.211Z,510
2022-08-17T02:53:07.412Z,517
2022-08-17T02:54:02.094Z,515
2022-08-17T02:54:50.909Z,505
2022-08-17T02:55:42.723Z,493
2022-08-17T02:56:34.684Z,494
2022-08-17T02:57:26.547Z,478
2022-08-17T02:58:18.455Z,476
2022-08-17T02:59:10.319Z,481
2022-08-17T03:00:02.235Z,478
2022-08-17T03:00:54.118Z,487
2022-08-17T03:01:45.995Z,496
2022-08-17T03:02:37.870Z,545
2022-08-17T03:03:29.780Z,585
2022-08-17T03:04:21.667Z,600
2022-08-17T03:05:13.553Z,619
2022-08-17T03:06:05.426Z,611
2022-08-17T03:06:57.311Z,608
2022-08-17T03:07:49.180Z,584
2022-08-17T03:08:41.085Z,558
2022-08-17T03:09:32.965Z,558
2022-08-17T03:10:24.846Z,535
2022-08-17T03:11:16.717Z,535
2022-08-17T03:12:08.641Z,547
2022-08-17T03:13:00.499Z,512
2022-08-17T03:13:52.295Z,519
2022-08-17T03:14:44.246Z,509
2022-08-17T03:15:36.140Z,511
2022-08-17T03:16:28.047Z,498
2022-08-17T03:17:19.904Z,501
2022-08-17T03:18:11.769Z,538
2022-08-17T03:19:03.671Z,629
2022-08-17T03:19:55.524Z,695
2022-08-17T03:20:47.423Z,677
2022-08-17T03:21:39.275Z,672
2022-08-17T03:22:35.986Z,648
2022-08-17T03:23:24.163Z,631
2022-08-17T03:24:14.957Z,617
2022-08-17T03:25:10.849Z,575
2022-08-17T03:25:58.660Z,580
2022-08-17T03:26:50.563Z,556
2022-08-17T03:27:42.380Z,538
2022-08-17T03:28:34.302Z,527
2022-08-17T03:29:26.208Z,500
2022-08-17T03:30:18.081Z,479
2022-08-17T03:31:09.960Z,477
2022-08-17T03:32:01.814Z,468
2022-08-17T03:32:53.712Z,492
2022-08-17T03:33:45.499Z,504
2022-08-17T03:34:37.466Z,492
2022-08-17T03:35:29.360Z,504
2022-08-17T03:36:21.215Z,490
2022-08-17T03:37:13.097Z,464
2022-08-17T03:38:04.994Z,461
2022-08-17T03:38:56.844Z,477
2022-08-17T03:39:48.865Z,465
2022-08-17T03:40:57.713Z,462
2022-08-17T03:41:32.456Z,443
2022-08-17T03:42:31.233Z,450
2022-08-17T03:43:16.251Z,446
2022-08-17T03:44:08.111Z,516
2022-08-17T03:45:00.115Z,516
2022-08-17T03:45:51.891Z,550
2022-08-17T03:46:43.762Z,555
2022-08-17T03:47:35.637Z,566
2022-08-17T03:48:27.524Z,569
2022-08-17T03:49:19.415Z,589
2022-08-17T03:50:11.273Z,596
2022-08-17T03:51:03.160Z,560
2022-08-17T03:51:55.019Z,540
2022-08-17T03:52:46.874Z,521
2022-08-17T03:53:38.771Z,509
2022-08-17T03:54:30.630Z,533
2022-08-17T03:55:22.467Z,510
2022-08-17T03:56:14.379Z,503
2022-08-17T03:57:06.276Z,525
2022-08-17T03:57:58.132Z,518
2022-08-17T03:58:50.008Z,507
2022-08-17T03:59:41.867Z,492
2022-08-17T04:00:33.768Z,489
2022-08-17T04:01:25.676Z,485
2022-08-17T04:02:17.530Z,465
2022-08-17T04:03:09.373Z,471
2022-08-17T04:04:01.248Z,462
2022-08-17T04:04:53.109Z,450
2022-08-17T04:05:44.990Z,455
2022-08-17T04:06:36.855Z,456
2022-08-17T04:07:28.733Z,436
2022-08-17T04:08:20.611Z,435
2022-08-17T04:09:12.436Z,449
2022-08-17T04:10:04.346Z,459
2022-08-17T04:10:56.246Z,469
2022-08-17T04:11:48.102Z,448
2022-08-17T04:12:39.992Z,461
2022-08-17T04:13:31.856Z,457
2022-08-17T04:14:23.736Z,449
2022-08-17T04:15:15.585Z,447
2022-08-17T04:16:07.478Z,431
2022-08-17T04:16:59.339Z,430
2022-08-17T04:17:51.228Z,446
2022-08-17T04:18:43.020Z,447
2022-08-17T04:19:34.984Z,442
2022-08-17T04:20:26.834Z,437
2022-08-17T04:21:18.715Z,455
2022-08-17T04:22:10.595Z,436
2022-08-17T04:23:02.370Z,432
2022-08-17T04:23:54.337Z,450
2022-08-17T04:24:46.210Z,426
2022-08-17T04:25:38.065Z,436
2022-08-17T04:26:52.877Z,422
2022-08-17T04:27:21.833Z,422
2022-08-17T04:28:16.012Z,426
2022-08-17T04:29:05.560Z,427
2022-08-17T04:29:57.439Z,874
2022-08-17T04:30:49.305Z,2706
2022-08-17T04:31:41.186Z,1989
2022-08-17T04:33:04.017Z,1527
2022-08-17T04:33:24.937Z,1241
2022-08-17T04:34:19.672Z,969
2022-08-17T04:35:08.684Z,886
2022-08-17T04:36:00.548Z,691
2022-08-17T04:36:52.366Z,657
2022-08-17T04:37:44.286Z,628
2022-08-17T04:38:36.182Z,583
2022-08-17T04:39:28.066Z,583
2022-08-17T04:40:19.973Z,550
2022-08-17T04:41:11.799Z,561
2022-08-17T04:42:03.678Z,539
2022-08-17T04:43:00.810Z,512
2022-08-17T04:43:47.431Z,506
2022-08-17T04:44:39.303Z,518
2022-08-17T04:45:32.371Z,494
2022-08-17T04:46:23.039Z,473
2022-08-17T04:47:14.921Z,492
2022-08-17T04:48:06.795Z,491
2022-08-17T04:48:58.670Z,487
2022-08-17T04:49:50.540Z,480
2022-08-17T04:50:42.667Z,471
2022-08-17T04:51:34.285Z,463
2022-08-17T04:52:42.697Z,466
2022-08-17T04:53:18.031Z,526
2022-08-17T04:54:09.920Z,541
2022-08-17T04:55:01.785Z,565
2022-08-17T04:55:53.677Z,551
2022-08-17T04:56:45.458Z,543
2022-08-17T04:57:40.588Z,518
2022-08-17T04:58:29.286Z,513
2022-08-17T04:59:21.175Z,518
2022-08-17T05:00:13.043Z,504
2022-08-17T05:01:04.967Z,500
2022-08-17T05:01:56.784Z,489
2022-08-17T05:02:50.190Z,494
2022-08-17T05:03:40.546Z,491
2022-08-17T05:04:34.522Z,485
2022-08-17T05:05:24.285Z,472
2022-08-17T05:06:16.182Z,525
2022-08-17T05:07:08.049Z,547
2022-08-17T05:07:59.922Z,540
2022-08-17T05:08:51.786Z,515
2022-08-17T05:09:43.676Z,506
2022-08-17T05:10:35.553Z,515
2022-08-17T05:11:27.431Z,498
2022-08-17T05:12:19.291Z,498
2022-08-17T05:13:11.193Z,496
2022-08-17T05:14:03.038Z,473
2022-08-17T05:14:54.946Z,497
2022-08-17T05:15:47.914Z,490
2022-08-17T05:16:38.688Z,571
2022-08-17T05:17:30.550Z,533
2022-08-17T05:18:22.395Z,520
2022-08-17T05:19:14.311Z,506
2022-08-17T05:20:06.198Z,484
2022-08-17T05:20:58.083Z,481
2022-08-17T05:21:49.975Z,451
2022-08-17T05:22:41.839Z,481
2022-08-17T05:23:41.728Z,504
2022-08-17T05:24:42.557Z,517
2022-08-17T05:25:17.483Z,518
2022-08-17T05:26:10.320Z,517
2022-08-17T05:27:06.479Z,504
2022-08-17T05:27:53.062Z,510
2022-08-17T05:28:44.990Z,507
2022-08-17T05:29:37.007Z,490
2022-08-17T05:30:28.753Z,512
2022-08-17T05:31:20.627Z,498
2022-08-17T05:32:38.059Z,501
2022-08-17T05:33:04.400Z,543
2022-08-17T05:33:56.276Z,533
2022-08-17T05:34:48.144Z,518
2022-08-17T05:35:40.038Z,523
2022-08-17T05:36:42.079Z,519
2022-08-17T05:37:23.800Z,504
2022-08-17T05:38:15.655Z,509
2022-08-17T05:39:07.557Z,503
2022-08-17T05:39:59.567Z,490
2022-08-17T05:40:51.298Z,482
2022-08-17T05:41:43.085Z,491
2022-08-17T05:42:35.065Z,479
2022-08-17T05:43:26.935Z,538
2022-08-17T05:44:18.826Z,1763
2022-08-17T05:45:10.682Z,2192
2022-08-17T05:46:02.485Z,1473
2022-08-17T05:46:54.436Z,1263
2022-08-17T05:47:46.334Z,945
2022-08-17T05:48:40.035Z,679
2022-08-17T05:49:30.096Z,639
2022-08-17T05:50:25.772Z,615
2022-08-17T05:51:13.917Z,661
2022-08-17T05:52:05.750Z,826
2022-08-17T05:52:57.644Z,696
2022-08-17T05:53:49.544Z,660
2022-08-17T05:54:41.400Z,637
2022-08-17T05:55:33.422Z,586
2022-08-17T05:56:29.714Z,567
2022-08-17T05:57:17.045Z,558
2022-08-17T05:58:08.938Z,558
2022-08-17T05:59:00.813Z,559
2022-08-17T05:59:52.692Z,550
2022-08-17T06:00:44.675Z,569
2022-08-17T06:01:36.538Z,553
2022-08-17T06:02:28.340Z,538
2022-08-17T06:03:20.249Z,532
2022-08-17T06:04:12.109Z,554
2022-08-17T06:05:04.000Z,546
2022-08-17T06:05:55.880Z,528
2022-08-17T06:06:47.776Z,514
2022-08-17T06:07:39.647Z,518
2022-08-17T06:08:31.556Z,531
2022-08-17T06:09:28.891Z,513
2022-08-17T06:10:15.314Z,482
2022-08-17T06:11:07.177Z,495
2022-08-17T06:11:59.089Z,483
2022-08-17T06:12:51.173Z,474
2022-08-17T06:13:42.812Z,491
2022-08-17T06:14:34.724Z,497
2022-08-17T06:15:26.628Z,486
2022-08-17T06:16:33.554Z,491
2022-08-17T06:17:10.349Z,466
2022-08-17T06:18:02.248Z,471
2022-08-17T06:18:54.100Z,461
2022-08-17T06:19:45.869Z,452
2022-08-17T06:20:37.856Z,460
2022-08-17T06:21:30.517Z,452
2022-08-17T06:22:21.598Z,471
2022-08-17T06:23:13.385Z,466
2022-08-17T06:24:05.335Z,461
2022-08-17T06:24:57.186Z,464
2022-08-17T06:25:49.093Z,460
2022-08-17T06:26:43.231Z,458
2022-08-17T06:27:32.726Z,469
2022-08-17T06:28:24.688Z,467
2022-08-17T06:29:18.653Z,439
2022-08-17T06:30:08.413Z,447
2022-08-17T06:31:01.218Z,447
2022-08-17T06:31:52.155Z,442
2022-08-17T06:32:44.060Z,442
2022-08-17T06:33:35.931Z,444
2022-08-17T06:34:27.790Z,440
2022-08-17T06:35:19.660Z,445
2022-08-17T06:36:11.573Z,446
2022-08-17T06:37:03.772Z,444
2022-08-17T06:37:55.278Z,464
2022-08-17T06:38:47.148Z,463
2022-08-17T06:39:39.074Z,464
2022-08-17T06:40:30.877Z,443
2022-08-17T06:41:22.666Z,456
2022-08-17T06:43:02.173Z,464
2022-08-17T06:43:07.318Z,445
2022-08-17T06:43:58.352Z,449
2022-08-17T06:44:51.393Z,438
2022-08-17T06:45:42.095Z,439
2022-08-17T06:46:33.978Z,443
2022-08-17T06:47:28.456Z,439
2022-08-17T06:48:17.729Z,460
2022-08-17T06:49:09.559Z,435
2022-08-17T06:50:01.443Z,463
2022-08-17T06:50:53.229Z,472
2022-08-17T06:51:45.193Z,451
2022-08-17T06:52:46.704Z,488
2022-08-17T06:53:28.937Z,486
2022-08-17T06:54:20.793Z,453
2022-08-17T06:55:18.570Z,458
2022-08-17T06:56:04.556Z,470
2022-08-17T06:56:56.412Z,467
2022-08-17T06:57:48.282Z,453
2022-08-17T06:58:40.437Z,454
2022-08-17T06:59:54.741Z,457
2022-08-17T07:00:23.909Z,466
2022-08-17T07:01:15.796Z,485
2022-08-17T07:02:07.641Z,470
2022-08-17T07:02:59.506Z,478
2022-08-17T07:03:51.385Z,469
2022-08-17T07:04:43.167Z,463
2022-08-17T07:05:35.135Z,464
2022-08-17T07:06:27.018Z,467
2022-08-17T07:07:18.904Z,471
2022-08-17T07:08:10.756Z,459
2022-08-17T07:09:02.550Z,456
2022-08-17T07:09:54.508Z,463
2022-08-17T07:10:46.387Z,441
2022-08-17T07:11:38.254Z,445
2022-08-17T07:12:30.145Z,445
2022-08-17T07:13:22.008Z,457
2022-08-17T07:14:17.153Z,453
2022-08-17T07:15:05.776Z,452
2022-08-17T07:15:57.641Z,447
2022-08-17T07:16:49.503Z,430
2022-08-17T07:17:47.170Z,451
2022-08-17T07:18:33.268Z,445
2022-08-17T07:19:25.152Z,435
2022-08-17T07:20:17.006Z,435
2022-08-17T07:21:09.275Z,436
2022-08-17T07:22:00.771Z,419
2022-08-17T07:22:59.703Z,418
2022-08-17T07:23:44.529Z,435
2022-08-17T07:24:36.445Z,427
2022-08-17T07:25:28.289Z,421
2022-08-17T07:26:20.175Z,402
2022-08-17T07:27:12.043Z,408
2022-08-17T07:28:06.838Z,413
2022-08-17T07:28:55.802Z,413
2022-08-17T07:29:47.708Z,404
2022-08-17T07:30:47.104Z,414
2022-08-17T07:31:31.451Z,425
2022-08-17T07:32:23.422Z,386
2022-08-17T07:33:15.212Z,421
2022-08-17T07:34:07.094Z,415
2022-08-17T07:34:59.014Z,404
2022-08-17T07:35:50.806Z,395
2022-08-17T07:36:42.668Z,454
2022-08-17T07:37:34.621Z,545
2022-08-17T07:38:27.028Z,519
2022-08-17T07:39:18.393Z,552
2022-08-17T07:40:15.568Z,548
2022-08-17T07:41:02.388Z,532
2022-08-17T07:41:59.070Z,514
2022-08-17T07:42:46.780Z,490
2022-08-17T07:43:37.852Z,437
2022-08-17T07:44:29.728Z,437
2022-08-17T07:45:21.628Z,436
2022-08-17T07:46:13.493Z,394
2022-08-17T07:47:05.393Z,398
2022-08-17T07:47:57.272Z,399
2022-08-17T07:48:49.181Z,400
2022-08-17T07:49:41.061Z,438
2022-08-17T07:50:32.991Z,472
2022-08-17T07:51:24.843Z,445
2022-08-17T07:52:48.098Z,428
2022-08-17T07:53:08.603Z,446
2022-08-17T07:54:13.583Z,446
2022-08-17T07:54:52.385Z,412
2022-08-17T07:55:44.289Z,428
2022-08-17T07:56:36.156Z,423
2022-08-17T07:57:29.996Z,417
2022-08-17T07:58:19.945Z,407
2022-08-17T07:59:11.841Z,417
2022-08-17T08:00:03.700Z,425
2022-08-17T08:00:55.618Z,409
2022-08-17T08:01:47.527Z,405
2022-08-17T08:02:39.411Z,407
2022-08-17T08:03:31.276Z,430
2022-08-17T08:04:43.152Z,401
2022-08-17T08:05:15.087Z,413
2022-08-17T08:06:06.960Z,413
2022-08-17T08:06:58.800Z,412
2022-08-17T08:07:50.892Z,396
2022-08-17T08:08:42.679Z,404
2022-08-17T08:09:34.523Z,423
2022-08-17T08:10:26.400Z,400
2022-08-17T08:11:18.296Z,408
2022-08-17T08:12:10.192Z,413
2022-08-17T08:13:02.070Z,397
2022-08-17T08:13:53.958Z,404
2022-08-17T08:14:45.777Z,414
2022-08-17T08:15:37.750Z,430
2022-08-17T08:16:29.725Z,463
2022-08-17T08:17:21.542Z,450
2022-08-17T08:18:13.425Z,458
2022-08-17T08:19:05.303Z,446
2022-08-17T08:19:57.215Z,447
2022-08-17T08:20:52.080Z,461
2022-08-17T08:21:41.011Z,465
2022-08-17T08:22:32.873Z,458
2022-08-17T08:23:24.798Z,458
2022-08-17T08:24:16.701Z,464
2022-08-17T08:25:08.613Z,463
2022-08-17T08:26:00.495Z,492
2022-08-17T08:26:52.396Z,484
2022-08-17T08:27:44.288Z,477
2022-08-17T08:28:36.204Z,504
2022-08-17T08:29:28.098Z,522
2022-08-17T08:30:20.075Z,541
2022-08-17T08:31:11.891Z,576
2022-08-17T08:32:03.801Z,598
2022-08-17T08:32:57.697Z,609
2022-08-17T08:33:47.607Z,594
2022-08-17T08:34:45.035Z,594
2022-08-17T08:35:31.409Z,553
2022-08-17T08:37:16.096Z,579
2022-08-17T08:37:22.594Z,559
2022-08-17T08:38:07.095Z,534
2022-08-17T08:38:59.033Z,542
2022-08-17T08:39:50.985Z,545
2022-08-17T08:40:42.750Z,564
2022-08-17T08:41:34.712Z,561
2022-08-17T08:42:26.633Z,576
2022-08-17T08:43:18.912Z,638
2022-08-17T08:44:10.421Z,585
2022-08-17T08:45:04.530Z,564
2022-08-17T08:45:54.210Z,542
2022-08-17T08:46:46.021Z,534
2022-08-17T08:47:38.036Z,637
2022-08-17T08:48:53.214Z,585
2022-08-17T08:49:38.990Z,568
2022-08-17T08:50:36.904Z,553
2022-08-17T08:51:05.676Z,540
2022-08-17T08:51:57.541Z,533
2022-08-17T08:52:49.479Z,531
2022-08-17T08:53:41.333Z,519
2022-08-17T08:54:33.162Z,535
2022-08-17T08:55:25.158Z,525
2022-08-17T08:56:17.063Z,529
2022-08-17T08:57:24.321Z,517
2022-08-17T08:58:00.863Z,497
2022-08-17T08:58:52.696Z,504
2022-08-17T08:59:44.785Z,507
2022-08-17T09:00:36.572Z,495
2022-08-17T09:01:28.654Z,504
2022-08-17T09:02:20.471Z,509
2022-08-17T09:03:12.313Z,523
2022-08-17T09:04:21.398Z,516
2022-08-17T09:05:13.804Z,547
2022-08-17T09:05:48.429Z,503
2022-08-17T09:06:40.220Z,493
2022-08-17T09:07:31.835Z,506
2022-08-17T09:08:23.781Z,491
2022-08-17T09:09:15.648Z,503
2022-08-17T09:10:07.576Z,494
2022-08-17T09:10:59.476Z,510
2022-08-17T09:12:02.282Z,477
2022-08-17T09:12:43.199Z,487
2022-08-17T09:13:35.211Z,457
2022-08-17T09:14:29.302Z,475
2022-08-17T09:15:19.031Z,638
2022-08-17T09:16:10.922Z,672
2022-08-17T09:17:02.765Z,682
2022-08-17T09:18:14.545Z,657
2022-08-17T09:19:03.455Z,621
2022-08-17T09:19:38.584Z,674
2022-08-17T09:20:30.488Z,662
2022-08-17T09:21:22.395Z,558
2022-08-17T09:22:14.311Z,691
2022-08-17T09:23:06.218Z,651
2022-08-17T09:23:58.146Z,564
2022-08-17T09:24:50.043Z,653
2022-08-17T09:25:41.983Z,766
2022-08-17T09:26:33.864Z,884
2022-08-17T09:27:25.818Z,1624
2022-08-17T09:28:17.694Z,1757
2022-08-17T09:29:09.636Z,2726
2022-08-17T09:30:01.511Z,2601
2022-08-17T09:30:53.404Z,2631
2022-08-17T09:31:48.830Z,2684
2022-08-17T09:32:37.278Z,2553
2022-08-17T09:33:29.181Z,2517
2022-08-17T09:34:21.123Z,2454
2022-08-17T09:35:12.947Z,2323
2022-08-17T09:36:04.933Z,2607
2022-08-17T09:36:56.848Z,2742
2022-08-17T09:37:49.040Z,2245
2022-08-17T09:38:40.694Z,2126
2022-08-17T09:39:32.708Z,2021
2022-08-17T09:40:24.513Z,1799
2022-08-17T09:41:16.445Z,1924
2022-08-17T09:42:08.337Z,2142
2022-08-17T09:43:00.279Z,2446
2022-08-17T09:43:52.172Z,2525
2022-08-17T09:44:44.110Z,2376
2022-08-17T09:45:36.012Z,2043
2022-08-17T09:46:27.944Z,1924
2022-08-17T09:47:19.873Z,2176
2022-08-17T09:48:11.787Z,2146
2022-08-17T09:49:03.694Z,1745
2022-08-17T09:49:55.629Z,2603
2022-08-17T09:51:03.527Z,8108
2022-08-17T09:51:39.476Z,5625
2022-08-17T09:52:31.375Z,3504
2022-08-17T09:53:23.234Z,3323
2022-08-17T09:55:07.144Z,2392
2022-08-17T09:55:59.054Z,2289
2022-08-17T09:57:11.531Z,2368
2022-08-17T09:57:42.807Z,2424
2022-08-17T09:58:34.823Z,2335
2022-08-17T09:59:26.746Z,2301
2022-08-17T10:00:18.652Z,2525
2022-08-17T10:01:10.647Z,2466
2022-08-17T10:02:02.512Z,2388
2022-08-17T10:02:54.459Z,2490
2022-08-17T10:03:46.347Z,2521
2022-08-17T10:04:38.261Z,2053
2022-08-17T10:05:30.205Z,2037
2022-08-17T10:06:22.476Z,1866
2022-08-17T10:07:14.036Z,1902
2022-08-17T10:08:05.939Z,1977
2022-08-17T10:08:57.876Z,1902
2022-08-17T10:09:49.787Z,1912
2022-08-17T10:10:41.902Z,1896
2022-08-17T10:11:33.996Z,1916
2022-08-17T10:12:29.820Z,1983
2022-08-17T10:13:18.280Z,1962
2022-08-17T10:14:36.499Z,1660
2022-08-17T10:15:07.713Z,1600
2022-08-17T10:15:53.247Z,1717
2022-08-17T10:16:45.178Z,1606
2022-08-17T10:17:37.084Z,1711
2022-08-17T10:18:32.140Z,1686
2022-08-17T10:19:20.936Z,1604
2022-08-17T10:20:12.821Z,1493
2022-08-17T10:21:04.788Z,1410
2022-08-17T10:22:01.395Z,1374
2022-08-17T10:22:53.071Z,1285
2022-08-17T10:23:40.514Z,1279
2022-08-17T10:24:32.457Z,1138
2022-08-17T10:25:33.307Z,1154
2022-08-17T10:26:16.278Z,1072
2022-08-17T10:27:08.198Z,852
2022-08-17T10:28:00.127Z,768
2022-08-17T10:28:52.068Z,919
2022-08-17T10:29:48.614Z,989
2022-08-17T10:30:35.885Z,987
2022-08-17T10:31:34.834Z,1134
2022-08-17T10:32:19.726Z,1130
2022-08-17T10:33:11.659Z,1138
2022-08-17T10:34:03.521Z,895
2022-08-17T10:34:55.501Z,963
2022-08-17T10:35:47.416Z,905
2022-08-17T10:36:39.352Z,745
2022-08-17T10:37:31.272Z,696
2022-08-17T10:38:24.500Z,691
2022-08-17T10:39:15.112Z,666
2022-08-17T10:40:07.101Z,680
2022-08-17T10:40:58.953Z,674
2022-08-17T10:41:50.901Z,686
2022-08-17T10:42:42.797Z,686
2022-08-17T10:43:34.728Z,652
2022-08-17T10:44:38.331Z,641
2022-08-17T10:45:18.574Z,600
2022-08-17T10:46:31.159Z,609
2022-08-17T10:47:02.412Z,610
2022-08-17T10:47:55.749Z,651
2022-08-17T10:48:46.192Z,629
2022-08-17T10:49:38.158Z,626
2022-08-17T10:50:30.083Z,634
2022-08-17T10:51:22.003Z,652
2022-08-17T10:52:13.969Z,660
2022-08-17T10:53:05.944Z,639
2022-08-17T10:53:57.827Z,626
2022-08-17T10:54:49.695Z,651
2022-08-17T10:55:41.639Z,626
2022-08-17T10:56:33.503Z,668
2022-08-17T10:57:25.485Z,637
2022-08-17T10:58:17.407Z,646
2022-08-17T10:59:09.338Z,643
2022-08-17T11:00:01.244Z,651
2022-08-17T11:00:53.178Z,649
2022-08-17T11:01:45.100Z,659
2022-08-17T11:02:37.038Z,636
2022-08-17T11:03:28.946Z,627
2022-08-17T11:04:20.884Z,641
2022-08-17T11:05:12.785Z,608
2022-08-17T11:06:04.734Z,627
2022-08-17T11:06:56.637Z,641
2022-08-17T11:07:48.588Z,619
2022-08-17T11:08:40.725Z,626
2022-08-17T11:09:32.419Z,633
2022-08-17T11:10:24.338Z,681
2022-08-17T11:11:16.281Z,668
2022-08-17T11:12:08.185Z,684
2022-08-17T11:13:00.137Z,671
2022-08-17T11:13:52.037Z,660
2022-08-17T11:14:43.990Z,631
2022-08-17T11:15:35.891Z,633
2022-08-17T11:16:27.830Z,629
2022-08-17T11:17:19.741Z,642
2022-08-17T11:18:11.676Z,660
2022-08-17T11:19:03.570Z,639
2022-08-17T11:19:55.551Z,645
2022-08-17T11:20:47.439Z,659
2022-08-17T11:21:39.374Z,636
2022-08-17T11:22:33.403Z,648
2022-08-17T11:23:23.157Z,644
2022-08-17T11:24:15.142Z,666
2022-08-17T11:25:07.084Z,660
2022-08-17T11:25:59.023Z,666
2022-08-17T11:26:50.946Z,649
2022-08-17T11:27:42.860Z,638
2022-08-17T11:28:34.796Z,654
2022-08-17T11:29:26.699Z,623
2022-08-17T11:30:18.590Z,648
2022-08-17T11:31:10.559Z,647
2022-08-17T11:32:02.496Z,644
2022-08-17T11:32:55.197Z,640
2022-08-17T11:33:46.265Z,648
2022-08-17T11:34:38.265Z,662
2022-08-17T11:35:30.206Z,664
2022-08-17T11:36:22.108Z,640
2022-08-17T11:37:14.064Z,638
2022-08-17T11:38:07.773Z,668
2022-08-17T11:38:57.912Z,636
2022-08-17T11:39:49.876Z,670
2022-08-17T11:40:41.747Z,671
2022-08-17T11:41:33.577Z,668
2022-08-17T11:42:25.658Z,672
2022-08-17T11:43:17.524Z,659
2022-08-17T11:44:09.442Z,683
2022-08-17T11:45:01.360Z,661
2022-08-17T11:45:53.257Z,637
2022-08-17T11:46:45.215Z,658
2022-08-17T11:47:37.148Z,650
2022-08-17T11:48:29.418Z,677
2022-08-17T11:49:20.993Z,663
2022-08-17T11:50:12.941Z,669
2022-08-17T11:51:04.848Z,646
2022-08-17T11:51:56.760Z,642
2022-08-17T11:52:48.703Z,659